createdAt,value
2022-12-13T00:01:47.048Z,10.27
2022-12-13T00:04:14.140Z,10.93
2022-12-13T00:06:41.237Z,10.75
2022-12-13T00:09:08.300Z,10.73
2022-12-13T00:11:34.968Z,10.63
2022-12-13T00:14:01.955Z,10.38
2022-12-13T00:16:28.712Z,10.68
2022-12-13T00:19:00.137Z,10.35
2022-12-13T00:21:30.863Z,10.32
2022-12-13T00:23:58.950Z,11.07
2022-12-13T00:26:28.572Z,10.55
2022-12-13T00:28:55.433Z,11.07
2022-12-13T00:31:56.642Z,12.55
2022-12-13T00:34:11.306Z,11.38
2022-12-13T00:36:37.927Z,11.63
2022-12-13T00:39:04.667Z,11.73
2022-12-13T00:41:36.145Z,12.45
2022-12-13T00:44:04.347Z,12.13
2022-12-13T00:46:31.664Z,11.93
2022-12-13T00:49:01.008Z,12.27
2022-12-13T00:51:30.116Z,12.20
2022-12-13T00:53:56.958Z,12.73
2022-12-13T00:56:26.316Z,11.95
2022-12-13T00:58:54.285Z,13.43
2022-12-13T01:01:24.583Z,12.55
2022-12-13T01:03:53.116Z,11.80
2022-12-13T01:06:22.840Z,12.23
2022-12-13T01:08:49.968Z,13.88
2022-12-13T01:11:18.185Z,14.25
2022-12-13T01:13:44.856Z,14.07
2022-12-13T01:16:12.818Z,13.05
2022-12-13T01:18:40.550Z,14.77
2022-12-13T01:21:11.431Z,14.07
2022-12-13T01:23:38.582Z,14.48
2022-12-13T01:26:06.913Z,14.32
2022-12-13T01:28:33.735Z,13.45
2022-12-13T01:31:06.970Z,13.82
2022-12-13T01:33:34.427Z,14.15
2022-12-13T01:36:02.736Z,14.05
2022-12-13T01:38:30.794Z,14.90
2022-12-13T01:40:58.916Z,16.95
2022-12-13T01:43:25.785Z,15.05
2022-12-13T01:45:52.926Z,16.25
2022-12-13T01:48:25.670Z,15.27
2022-12-13T01:50:56.204Z,14.73
2022-12-13T01:53:28.223Z,15.55
2022-12-13T01:55:57.993Z,15.57
2022-12-13T01:58:25.176Z,15.13
2022-12-13T02:00:52.161Z,15.95
2022-12-13T02:03:22.203Z,14.88
2022-12-13T02:05:55.235Z,16.55
2022-12-13T02:08:27.253Z,16.20
2022-12-13T02:10:54.252Z,16.15
2022-12-13T02:13:20.873Z,15.27
2022-12-13T02:16:10.111Z,14.82
2022-12-13T02:19:19.148Z,14.68
2022-12-13T02:22:24.101Z,15.95
2022-12-13T02:24:50.745Z,14.15
2022-12-13T02:27:42.784Z,14.00
2022-12-13T02:30:38.823Z,16.05
2022-12-13T02:33:23.773Z,15.68
2022-12-13T02:36:21.272Z,14.63
2022-12-13T02:39:02.852Z,16.23
2022-12-13T02:41:41.921Z,16.10
2022-12-13T02:44:22.295Z,15.80
2022-12-13T02:47:01.987Z,17.00
2022-12-13T02:49:34.471Z,16.67
2022-12-13T02:52:02.220Z,14.23
2022-12-13T02:54:30.482Z,14.10
2022-12-13T02:56:58.909Z,16.33
2022-12-13T02:59:36.168Z,15.15
2022-12-13T03:02:10.161Z,16.65
2022-12-13T03:05:33.638Z,15.45
2022-12-13T03:08:16.256Z,17.33
2022-12-13T03:10:54.978Z,16.83
2022-12-13T03:13:39.083Z,15.95
2022-12-13T03:16:30.182Z,16.60
2022-12-13T03:19:02.157Z,17.00
2022-12-13T03:21:29.379Z,16.58
2022-12-13T03:23:56.023Z,16.92
2022-12-13T03:26:27.207Z,17.98
2022-12-13T03:28:54.369Z,18.35
2022-12-13T03:31:21.210Z,17.20
2022-12-13T03:33:48.079Z,19.10
2022-12-13T03:36:16.264Z,18.85
2022-12-13T03:38:43.040Z,18.73
2022-12-13T03:41:12.902Z,19.75
2022-12-13T03:43:40.432Z,17.55
2022-12-13T03:46:08.307Z,17.52
2022-12-13T03:48:35.392Z,19.33
2022-12-13T03:51:02.841Z,18.13
2022-12-13T03:53:32.633Z,18.73
2022-12-13T03:56:02.443Z,16.70
2022-12-13T03:58:35.751Z,17.52
2022-12-13T04:01:06.190Z,19.25
2022-12-13T04:03:32.799Z,20.45
2022-12-13T04:05:59.523Z,18.13
2022-12-13T04:08:26.178Z,18.92
2022-12-13T04:10:53.125Z,19.73
2022-12-13T04:13:34.756Z,18.77
2022-12-13T04:16:03.337Z,17.85
2022-12-13T04:18:30.169Z,22.38
2022-12-13T04:20:57.609Z,17.88
2022-12-13T04:23:24.534Z,19.48
2022-12-13T04:25:51.598Z,19.42
2022-12-13T04:28:22.038Z,18.75
2022-12-13T04:30:53.153Z,17.50
2022-12-13T04:33:21.617Z,19.05
2022-12-13T04:35:48.755Z,17.73
2022-12-13T04:38:15.715Z,18.42
2022-12-13T04:40:42.533Z,17.92
2022-12-13T04:43:09.513Z,18.40
2022-12-13T04:45:36.190Z,17.42
2022-12-13T04:48:03.107Z,18.20
2022-12-13T04:50:29.741Z,16.48
2022-12-13T04:52:56.380Z,17.70
2022-12-13T04:55:23.004Z,17.05
2022-12-13T04:57:49.650Z,16.52
2022-12-13T05:00:16.969Z,16.17
2022-12-13T05:02:43.704Z,16.35
2022-12-13T05:05:11.471Z,15.90
2022-12-13T05:07:42.138Z,14.82
2022-12-13T05:10:10.772Z,15.07
2022-12-13T05:12:37.520Z,14.75
2022-12-13T05:15:05.166Z,15.77
2022-12-13T05:17:31.857Z,15.25
2022-12-13T05:19:58.526Z,14.23
2022-12-13T05:22:25.453Z,14.90
2022-12-13T05:24:52.129Z,14.52
2022-12-13T05:27:25.017Z,15.23
2022-12-13T05:30:03.758Z,14.57
2022-12-13T05:32:42.597Z,14.15
2022-12-13T05:35:12.518Z,14.15
2022-12-13T05:37:39.392Z,14.77
2022-12-13T05:40:06.784Z,14.23
2022-12-13T05:42:33.517Z,16.02
2022-12-13T05:45:00.357Z,15.35
2022-12-13T05:47:27.013Z,14.02
2022-12-13T05:49:54.048Z,13.90
2022-12-13T05:52:22.377Z,16.15
2022-12-13T05:55:01.032Z,16.55
2022-12-13T05:57:28.419Z,15.13
2022-12-13T05:59:55.661Z,13.95
2022-12-13T06:02:22.587Z,15.02
2022-12-13T06:04:49.615Z,15.32
2022-12-13T06:07:16.808Z,15.50
2022-12-13T06:09:43.574Z,13.82
2022-12-13T06:12:30.731Z,18.63
2022-12-13T06:15:01.429Z,15.60
2022-12-13T06:17:36.415Z,12.68
2022-12-13T06:20:24.438Z,15.23
2022-12-13T06:22:52.552Z,15.75
2022-12-13T06:25:30.844Z,16.30
2022-12-13T06:28:00.768Z,14.25
2022-12-13T06:30:29.247Z,15.35
2022-12-13T06:32:56.308Z,13.68
2022-12-13T06:35:27.965Z,14.73
2022-12-13T06:38:01.178Z,13.40
2022-12-13T06:40:29.045Z,14.25
2022-12-13T06:42:55.736Z,13.82
2022-12-13T06:45:22.595Z,13.23
2022-12-13T06:47:49.236Z,14.48
2022-12-13T06:50:16.031Z,14.18
2022-12-13T06:52:42.699Z,11.85
2022-12-13T06:55:09.912Z,13.43
2022-12-13T06:57:36.960Z,12.25
2022-12-13T07:00:05.127Z,13.77
2022-12-13T07:02:32.857Z,13.73
2022-12-13T07:04:59.578Z,12.65
2022-12-13T07:07:26.425Z,13.50
2022-12-13T07:09:53.628Z,12.57
2022-12-13T07:12:21.054Z,12.43
2022-12-13T07:14:48.177Z,13.43
2022-12-13T07:17:32.495Z,13.60
2022-12-13T07:20:00.935Z,12.68
2022-12-13T07:22:28.031Z,13.07
2022-12-13T07:24:54.775Z,11.73
2022-12-13T07:27:21.768Z,12.55
2022-12-13T07:29:48.423Z,12.73
2022-12-13T07:32:15.483Z,13.60
2022-12-13T07:34:42.385Z,13.35
2022-12-13T07:37:29.285Z,11.05
2022-12-13T07:40:02.968Z,12.70
2022-12-13T07:42:30.997Z,11.88
2022-12-13T07:44:57.632Z,14.20
2022-12-13T07:47:29.324Z,12.88
2022-12-13T07:49:56.216Z,12.07
2022-12-13T07:52:23.081Z,12.25
2022-12-13T07:54:49.840Z,12.38
2022-12-13T07:57:16.730Z,12.38
2022-12-13T07:59:43.403Z,11.93
2022-12-13T08:02:13.145Z,12.48
2022-12-13T08:04:40.140Z,11.90
2022-12-13T08:07:08.949Z,11.70
2022-12-13T08:09:36.044Z,11.00
2022-12-13T08:12:03.467Z,12.73
2022-12-13T08:14:30.115Z,11.07
2022-12-13T08:16:57.105Z,11.32
2022-12-13T08:19:23.904Z,13.50
2022-12-13T08:21:55.798Z,13.05
2022-12-13T08:24:24.364Z,11.60
2022-12-13T08:26:51.143Z,11.45
2022-12-13T08:29:23.335Z,12.15
2022-12-13T08:32:07.276Z,10.45
2022-12-13T08:34:34.002Z,11.60
2022-12-13T08:37:02.182Z,11.15
2022-12-13T08:39:36.663Z,10.30
2022-12-13T08:42:16.881Z,12.45
2022-12-13T08:44:49.623Z,11.32
2022-12-13T08:47:24.792Z,10.02
2022-12-13T08:50:01.521Z,11.32
2022-12-13T08:52:31.242Z,10.40
2022-12-13T08:54:58.258Z,11.32
2022-12-13T08:57:25.106Z,11.18
2022-12-13T08:59:51.883Z,10.88
2022-12-13T09:02:18.891Z,10.35
2022-12-13T09:04:45.775Z,9.55
2022-12-13T09:07:13.009Z,9.85
2022-12-13T09:09:39.889Z,9.80
2022-12-13T09:12:10.378Z,9.23
2022-12-13T09:14:45.777Z,10.30
2022-12-13T09:17:24.671Z,10.45
2022-12-13T09:19:57.983Z,10.20
2022-12-13T09:22:33.959Z,8.68
2022-12-13T09:25:02.340Z,10.50
2022-12-13T09:27:40.035Z,9.45
2022-12-13T09:30:08.194Z,10.50
2022-12-13T09:32:34.890Z,9.30
2022-12-13T09:35:02.034Z,10.73
2022-12-13T09:37:29.713Z,10.07
2022-12-13T09:39:56.451Z,10.77
2022-12-13T09:42:30.880Z,11.65
2022-12-13T09:45:06.191Z,10.93
2022-12-13T09:47:50.644Z,10.80
2022-12-13T09:50:30.321Z,10.15
2022-12-13T09:53:12.148Z,9.77
2022-12-13T09:55:50.123Z,10.75
2022-12-13T09:58:31.854Z,10.27
2022-12-13T10:00:59.267Z,10.73
2022-12-13T10:03:27.127Z,10.75
2022-12-13T10:06:02.159Z,10.30
2022-12-13T10:08:43.178Z,10.55
2022-12-13T10:11:14.131Z,11.80
2022-12-13T10:13:52.226Z,10.90
2022-12-13T10:16:37.581Z,11.32
2022-12-13T10:19:28.916Z,10.30
2022-12-13T10:22:01.700Z,9.73
2022-12-13T10:24:47.644Z,11.50
2022-12-13T10:27:20.607Z,10.63
2022-12-13T10:29:57.329Z,10.55
2022-12-13T10:32:24.019Z,11.52
2022-12-13T10:34:50.854Z,12.02
2022-12-13T10:37:35.493Z,11.45
2022-12-13T10:40:03.773Z,12.40
2022-12-13T10:42:34.020Z,11.65
2022-12-13T10:45:15.588Z,11.52
2022-12-13T10:47:45.077Z,11.32
2022-12-13T10:50:29.781Z,10.48
2022-12-13T10:52:59.295Z,10.55
2022-12-13T10:55:35.190Z,11.18
2022-12-13T10:58:07.565Z,12.40
2022-12-13T11:00:46.262Z,19.73
2022-12-13T11:03:27.929Z,11.73
2022-12-13T11:06:15.683Z,10.90
2022-12-13T11:08:42.754Z,12.18
2022-12-13T11:11:10.960Z,10.93
2022-12-13T11:13:45.320Z,10.90
2022-12-13T11:16:21.743Z,11.70
2022-12-13T11:18:54.362Z,10.23
2022-12-13T11:21:30.084Z,10.82
2022-12-13T11:24:01.798Z,9.85
2022-12-13T11:26:31.009Z,11.18
2022-12-13T11:29:08.479Z,14.57
2022-12-13T11:32:02.718Z,16.23
2022-12-13T11:34:47.511Z,13.02
2022-12-13T11:37:26.203Z,12.15
2022-12-13T11:40:02.978Z,14.25
2022-12-13T11:42:32.913Z,11.05
2022-12-13T11:45:22.920Z,13.43
2022-12-13T11:48:20.713Z,11.77
2022-12-13T11:50:53.537Z,11.75
2022-12-13T11:53:54.924Z,10.32
2022-12-13T11:56:25.401Z,10.90
2022-12-13T11:59:31.997Z,11.77
2022-12-13T12:02:22.198Z,11.70
2022-12-13T12:05:00.394Z,13.20
2022-12-13T12:07:58.777Z,11.75
2022-12-13T12:10:38.514Z,11.45
2022-12-13T12:13:17.102Z,11.32
2022-12-13T12:15:57.291Z,12.48
2022-12-13T12:18:24.478Z,12.43
2022-12-13T12:21:09.373Z,12.43
2022-12-13T12:23:59.270Z,13.15
2022-12-13T12:27:04.090Z,12.32
2022-12-13T12:29:59.714Z,11.73
2022-12-13T12:32:26.363Z,12.05
2022-12-13T12:35:16.327Z,11.82
2022-12-13T12:38:01.914Z,10.68
2022-12-13T12:41:15.609Z,12.32
2022-12-13T12:43:43.452Z,10.73
2022-12-13T12:46:47.163Z,11.45
2022-12-13T12:49:29.910Z,11.93
2022-12-13T12:52:29.498Z,11.73
2022-12-13T12:55:28.346Z,11.23
2022-12-13T12:58:10.896Z,11.73
2022-12-13T13:01:00.476Z,11.90
2022-12-13T13:03:30.057Z,13.30
2022-12-13T13:06:25.181Z,11.52
2022-12-13T13:09:06.369Z,11.88
2022-12-13T13:11:43.302Z,12.43
2022-12-13T13:14:45.876Z,12.70
2022-12-13T13:17:24.637Z,12.82
2022-12-13T13:20:14.077Z,12.93
2022-12-13T13:22:44.463Z,11.90
2022-12-13T13:25:25.841Z,12.35
2022-12-13T13:28:00.537Z,12.35
2022-12-13T13:30:27.359Z,13.75
2022-12-13T13:32:58.616Z,12.48
2022-12-13T13:35:36.078Z,14.20
2022-12-13T13:38:27.551Z,13.32
2022-12-13T13:40:54.514Z,16.00
2022-12-13T13:43:32.805Z,16.20
2022-12-13T13:46:02.572Z,21.88
2022-12-13T13:48:41.279Z,22.02
2022-12-13T13:51:26.898Z,19.35
2022-12-13T13:54:18.653Z,14.38
2022-12-13T13:56:50.222Z,20.63
2022-12-13T13:59:29.334Z,14.02
2022-12-13T14:02:05.277Z,13.05
2022-12-13T14:04:49.845Z,11.43
2022-12-13T14:07:27.160Z,11.07
2022-12-13T14:10:30.625Z,11.50
2022-12-13T14:13:25.623Z,11.60
2022-12-13T14:16:02.123Z,11.82
2022-12-13T14:19:15.988Z,14.10
2022-12-13T14:21:51.666Z,12.50
2022-12-13T14:24:55.554Z,10.60
2022-12-13T14:27:24.938Z,10.13
2022-12-13T14:29:58.497Z,11.30
2022-12-13T14:32:29.086Z,12.80
2022-12-13T14:34:57.471Z,11.55
2022-12-13T14:37:37.785Z,11.30
2022-12-13T14:40:24.503Z,11.25
2022-12-13T14:42:57.519Z,11.90
2022-12-13T14:45:29.441Z,11.35
2022-12-13T14:47:58.102Z,10.70
2022-12-13T14:50:26.981Z,11.15
2022-12-13T14:52:55.864Z,10.30
2022-12-13T14:55:40.840Z,10.10
2022-12-13T14:58:20.825Z,10.40
2022-12-13T15:00:47.546Z,12.13
2022-12-13T15:03:26.349Z,11.93
2022-12-13T15:05:56.659Z,11.05
2022-12-13T15:08:24.150Z,11.27
2022-12-13T15:10:59.510Z,11.48
2022-12-13T15:13:39.956Z,11.43
2022-12-13T15:16:18.178Z,12.43
2022-12-13T15:18:50.833Z,12.15
2022-12-13T15:21:25.051Z,10.93
2022-12-13T15:23:53.562Z,10.98
2022-12-13T15:26:29.336Z,11.98
2022-12-13T15:28:59.760Z,11.48
2022-12-13T15:31:27.862Z,11.45
2022-12-13T15:34:01.087Z,10.75
2022-12-13T15:36:29.080Z,11.20
2022-12-13T15:38:55.741Z,12.77
2022-12-13T15:41:32.610Z,21.67
2022-12-13T15:44:07.598Z,13.43
2022-12-13T15:46:38.246Z,12.30
2022-12-13T15:49:12.888Z,11.93
2022-12-13T15:52:03.050Z,13.45
2022-12-13T15:54:30.395Z,12.68
2022-12-13T15:57:21.541Z,14.02
2022-12-13T15:59:48.749Z,12.30
2022-12-13T16:02:23.264Z,11.55
2022-12-13T16:04:50.440Z,11.27
2022-12-13T16:07:26.001Z,12.15
2022-12-13T16:09:54.453Z,11.27
2022-12-13T16:12:26.169Z,11.73
2022-12-13T16:14:52.977Z,11.52
2022-12-13T16:17:29.427Z,12.82
2022-12-13T16:20:01.125Z,10.63
2022-12-13T16:22:30.203Z,11.23
2022-12-13T16:24:56.873Z,11.60
2022-12-13T16:27:24.994Z,13.02
2022-12-13T16:29:51.691Z,12.38
2022-12-13T16:32:18.554Z,12.18
2022-12-13T16:34:45.201Z,11.65
2022-12-13T16:37:26.545Z,11.82
2022-12-13T16:39:54.190Z,11.40
2022-12-13T16:42:21.197Z,11.23
2022-12-13T16:45:01.612Z,11.80
2022-12-13T16:47:46.397Z,12.10
2022-12-13T16:50:17.832Z,12.05
2022-12-13T16:52:44.510Z,10.48
2022-12-13T16:55:12.377Z,12.25
2022-12-13T16:57:39.567Z,12.07
2022-12-13T17:00:09.943Z,11.15
2022-12-13T17:02:37.954Z,10.32
2022-12-13T17:05:05.913Z,11.88
2022-12-13T17:07:32.741Z,11.60
2022-12-13T17:09:59.963Z,17.83
2022-12-13T17:12:26.651Z,12.63
2022-12-13T17:14:54.251Z,11.75
2022-12-13T17:17:21.078Z,11.23
2022-12-13T17:19:47.749Z,10.40
2022-12-13T17:22:14.411Z,11.20
2022-12-13T17:24:41.190Z,11.63
2022-12-13T17:27:07.991Z,10.85
2022-12-13T17:29:34.772Z,10.43
2022-12-13T17:32:01.567Z,11.40
2022-12-13T17:34:28.265Z,10.48
2022-12-13T17:36:55.010Z,10.90
2022-12-13T17:39:21.742Z,10.98
2022-12-13T17:41:54.967Z,11.38
2022-12-13T17:44:23.382Z,11.80
2022-12-13T17:46:54.481Z,11.77
2022-12-13T17:49:22.478Z,11.85
2022-12-13T17:51:51.576Z,11.40
2022-12-13T17:54:19.524Z,12.10
2022-12-13T17:56:46.750Z,10.57
2022-12-13T17:59:15.292Z,11.80
2022-12-13T18:01:45.704Z,11.48
2022-12-13T18:04:12.763Z,10.63
2022-12-13T18:06:40.343Z,11.38
2022-12-13T18:09:08.423Z,11.90
2022-12-13T18:11:35.771Z,10.48
2022-12-13T18:14:04.413Z,10.98
2022-12-13T18:16:36.871Z,12.10
2022-12-13T18:19:07.468Z,12.02
2022-12-13T18:21:35.501Z,11.27
2022-12-13T18:24:02.455Z,10.82
2022-12-13T18:26:29.193Z,11.75
2022-12-13T18:28:55.885Z,11.57
2022-12-13T18:31:24.604Z,11.95
2022-12-13T18:33:53.500Z,11.73
2022-12-13T18:36:22.742Z,11.77
2022-12-13T18:38:49.794Z,12.63
2022-12-13T18:41:22.544Z,12.13
2022-12-13T18:43:55.383Z,12.05
2022-12-13T18:46:22.176Z,11.40
2022-12-13T18:48:49.117Z,11.73
2022-12-13T18:51:15.905Z,12.13
2022-12-13T18:53:42.560Z,12.13
2022-12-13T18:56:18.184Z,11.30
2022-12-13T18:58:46.673Z,11.55
2022-12-13T19:01:14.095Z,11.20
2022-12-13T19:03:43.831Z,12.70
2022-12-13T19:06:16.635Z,10.15
2022-12-13T19:08:43.623Z,11.10
2022-12-13T19:11:10.973Z,10.38
2022-12-13T19:13:37.673Z,10.38
2022-12-13T19:16:08.223Z,10.30
2022-12-13T19:18:35.797Z,11.15
2022-12-13T19:21:02.629Z,11.90
2022-12-13T19:23:29.842Z,11.45
2022-12-13T19:25:56.749Z,11.48
2022-12-13T19:28:23.497Z,12.38
2022-12-13T19:30:50.355Z,11.18
2022-12-13T19:33:17.389Z,11.13
2022-12-13T19:35:46.898Z,10.80
2022-12-13T19:38:13.739Z,10.68
2022-12-13T19:40:42.226Z,11.75
2022-12-13T19:43:10.264Z,9.60
2022-12-13T19:45:37.241Z,9.52
2022-12-13T19:48:04.463Z,12.65
2022-12-13T19:50:31.264Z,10.35
2022-12-13T19:52:57.923Z,10.93
2022-12-13T19:55:24.634Z,11.40
2022-12-13T19:57:51.426Z,9.18
2022-12-13T20:00:18.157Z,11.70
2022-12-13T20:02:45.030Z,10.20
2022-12-13T20:05:11.776Z,10.27
2022-12-13T20:07:38.491Z,10.98
2022-12-13T20:10:06.261Z,12.15
2022-12-13T20:12:37.193Z,10.38
2022-12-13T20:15:08.398Z,10.98
2022-12-13T20:17:35.973Z,9.93
2022-12-13T20:20:04.133Z,11.52
2022-12-13T20:22:31.967Z,10.63
2022-12-13T20:24:58.679Z,10.98
2022-12-13T20:27:25.802Z,10.15
2022-12-13T20:29:52.654Z,10.38
2022-12-13T20:32:20.994Z,11.55
2022-12-13T20:34:53.087Z,10.90
2022-12-13T20:37:21.594Z,10.40
2022-12-13T20:39:48.234Z,10.48
2022-12-13T20:42:15.007Z,10.95
2022-12-13T20:44:41.660Z,11.90
2022-12-13T20:47:08.421Z,10.55
2022-12-13T20:49:35.216Z,10.73
2022-12-13T20:52:02.059Z,10.10
2022-12-13T20:54:28.837Z,9.88
2022-12-13T20:56:55.568Z,10.68
2022-12-13T20:59:22.288Z,10.52
2022-12-13T21:01:49.431Z,10.80
2022-12-13T21:04:16.475Z,11.18
2022-12-13T21:06:43.154Z,10.30
2022-12-13T21:09:11.288Z,10.35
2022-12-13T21:11:48.159Z,11.80
2022-12-13T21:14:21.785Z,10.88
2022-12-13T21:16:51.593Z,10.38
2022-12-13T21:19:26.899Z,11.18
2022-12-13T21:21:55.054Z,11.60
2022-12-13T21:24:24.354Z,13.15
2022-12-13T21:26:51.530Z,11.23
2022-12-13T21:29:18.758Z,11.95
2022-12-13T21:31:48.849Z,10.85
2022-12-13T21:34:17.788Z,12.00
2022-12-13T21:36:46.968Z,12.07
2022-12-13T21:39:18.974Z,12.63
2022-12-13T21:41:45.780Z,12.38
2022-12-13T21:44:15.120Z,12.27
2022-12-13T21:49:29.287Z,11.93
2022-12-13T21:51:55.981Z,12.02
2022-12-13T21:54:22.750Z,10.85
2022-12-13T21:57:08.248Z,11.63
2022-12-13T21:59:35.073Z,12.07
2022-12-13T22:02:13.053Z,10.93
2022-12-13T22:05:00.969Z,11.50
2022-12-13T22:07:32.965Z,12.18
2022-12-13T22:10:00.822Z,11.38
2022-12-13T22:12:33.613Z,11.18
2022-12-13T22:15:00.521Z,11.70
2022-12-13T22:17:34.716Z,10.93
2022-12-13T22:20:03.759Z,11.35
2022-12-13T22:22:30.476Z,11.55
2022-12-13T22:24:57.202Z,11.27
2022-12-13T22:27:25.130Z,11.13
2022-12-13T22:29:53.508Z,11.18
2022-12-13T22:32:20.983Z,9.25
2022-12-13T22:34:47.751Z,10.50
2022-12-13T22:37:15.352Z,11.23
2022-12-13T22:52:16.296Z,10.63
2022-12-13T22:54:42.941Z,10.70
2022-12-13T22:57:09.681Z,11.23
2022-12-13T22:59:36.487Z,11.20
2022-12-13T23:02:03.886Z,11.27
2022-12-13T23:04:31.927Z,11.10
2022-12-13T23:06:58.773Z,12.25
2022-12-13T23:09:25.505Z,10.95
2022-12-13T23:12:10.899Z,10.07
2022-12-13T23:14:37.836Z,10.63
2022-12-13T23:17:04.831Z,11.40
2022-12-13T23:19:53.418Z,11.07
2022-12-13T23:22:22.583Z,10.32
2022-12-13T23:24:50.366Z,10.48
2022-12-13T23:27:17.884Z,10.27
2022-12-13T23:29:44.746Z,11.05
2022-12-13T23:32:12.114Z,12.00
2022-12-13T23:34:38.838Z,11.15
2022-12-13T23:37:05.511Z,11.23
2022-12-13T23:39:32.190Z,10.02
2022-12-13T23:41:58.925Z,10.95
2022-12-13T23:44:25.547Z,10.63
2022-12-13T23:46:52.219Z,12.15
2022-12-13T23:49:19.487Z,11.68
2022-12-13T23:51:46.457Z,9.70
2022-12-13T23:54:16.524Z,11.25
2022-12-13T23:56:43.482Z,10.90
2022-12-13T23:59:10.461Z,12.70
